Time;durP1;ratioP1;P1;durP2;ratioP2;P2;SDS_P1;SDS_P2;PMS_P1;PMS_P2;Temp;Humidity;BMP_temperature;BMP_pressure;BME280_temperature;BME280_humidity;BME280_pressure;Samples;Min_cycle;Max_cycle;Signal;HPM_P1;HPM_P2
2022/12/23 00:01:14;;;;;;;2.45;0.90;;;9.30;93.80;;;;;;5058649;28;20063;-58
2022/12/23 00:03:43;;;;;;;2.92;0.88;;;9.30;93.70;;;;;;5058922;28;20048;-58
2022/12/23 00:06:15;;;;;;;2.05;0.75;;;9.30;93.70;;;;;;5054538;28;20048;-58
2022/12/23 00:08:44;;;;;;;2.65;0.80;;;9.30;93.60;;;;;;5057328;28;20063;-57
2022/12/23 00:11:13;;;;;;;4.35;0.85;;;9.30;93.80;;;;;;5056251;28;20052;-58
2022/12/23 00:16:25;;;;;;;3.70;0.70;;;9.30;93.80;;;;;;5055902;28;20056;-57
2022/12/23 00:18:53;;;;;;;3.08;0.80;;;9.30;93.70;;;;;;5057470;28;20056;-57
2022/12/23 00:21:22;;;;;;;5.22;0.80;;;9.30;93.70;;;;;;5057622;28;20403;-57
2022/12/23 00:23:50;;;;;;;2.55;0.68;;;9.30;93.70;;;;;;5044115;28;20053;-57
2022/12/23 00:26:20;;;;;;;4.35;1.00;;;9.30;93.60;;;;;;5050414;28;20056;-57
2022/12/23 00:28:47;;;;;;;4.38;1.10;;;9.30;93.70;;;;;;5057096;28;20095;-57
2022/12/23 00:31:16;;;;;;;3.35;0.85;;;9.30;93.70;;;;;;5044031;28;20040;-58
2022/12/23 00:33:45;;;;;;;4.13;0.90;;;9.30;93.70;;;;;;5053114;28;20055;-58
2022/12/23 00:36:18;;;;;;;1.80;0.70;;;9.30;93.70;;;;;;5051713;28;20417;-58
2022/12/23 00:44:14;;;;;;;2.55;0.70;;;9.30;93.70;;;;;;5062452;28;20076;-59
2022/12/23 00:46:41;;;;;;;3.60;0.93;;;9.40;93.80;;;;;;5058975;28;20052;-58
2022/12/23 00:51:53;;;;;;;3.20;0.85;;;9.40;93.90;;;;;;5066399;28;20406;-58
2022/12/23 00:54:21;;;;;;;3.08;0.70;;;9.40;93.80;;;;;;5063026;28;20071;-59
2022/12/23 00:56:48;;;;;;;2.30;0.90;;;9.40;93.80;;;;;;5060346;28;20063;-59
2022/12/23 00:59:15;;;;;;;2.10;0.98;;;9.40;93.80;;;;;;5065104;28;20055;-57
2022/12/23 01:07:11;;;;;;;3.80;0.85;;;9.40;93.80;;;;;;5064511;28;20040;-59
2022/12/23 01:09:39;;;;;;;1.52;0.63;;;9.40;93.80;;;;;;5064281;28;20045;-58
2022/12/23 01:12:06;;;;;;;2.25;1.08;;;9.40;93.70;;;;;;5068087;28;20036;-58
2022/12/23 01:14:33;;;;;;;3.13;0.93;;;9.40;93.60;;;;;;5065841;28;20052;-59
2022/12/23 01:17:00;;;;;;;1.55;0.75;;;9.40;93.70;;;;;;5066194;28;20044;-57
2022/12/23 01:19:29;;;;;;;2.10;0.70;;;9.40;93.80;;;;;;5055400;28;20101;-59
2022/12/23 01:21:55;;;;;;;3.05;0.70;;;9.40;93.70;;;;;;5063157;28;20056;-59
2022/12/23 01:24:22;;;;;;;2.03;0.68;;;9.40;93.80;;;;;;5063089;28;22591;-58
2022/12/23 01:26:50;;;;;;;2.28;0.68;;;9.40;93.90;;;;;;5065021;28;20071;-59
2022/12/23 01:29:17;;;;;;;3.35;1.13;;;9.40;93.90;;;;;;5066222;28;20044;-59
2022/12/23 01:31:44;;;;;;;2.38;0.70;;;9.30;93.80;;;;;;5059313;28;20044;-60
2022/12/23 01:34:11;;;;;;;3.03;0.93;;;9.40;93.80;;;;;;5066498;28;20573;-59
2022/12/23 01:36:38;;;;;;;1.63;0.70;;;9.40;93.90;;;;;;5067858;28;20094;-59
2022/12/23 01:39:05;;;;;;;2.88;0.70;;;9.30;93.80;;;;;;5065736;28;20048;-59
2022/12/23 01:44:55;;;;;;;2.10;0.60;;;9.30;93.60;;;;;;5053255;28;20053;-59
2022/12/23 01:47:35;;;;;;;2.88;0.70;;;9.30;93.70;;;;;;5048700;28;20056;-59
2022/12/23 01:50:08;;;;;;;1.50;0.55;;;9.30;93.70;;;;;;5049507;28;20510;-59
2022/12/23 01:52:41;;;;;;;2.85;0.57;;;9.40;93.70;;;;;;5051505;28;20045;-60
2022/12/23 01:55:09;;;;;;;2.30;0.50;;;9.30;93.60;;;;;;5055454;28;20574;-60
2022/12/23 01:57:38;;;;;;;3.00;0.45;;;9.30;93.80;;;;;;5055103;28;20060;-59
2022/12/23 02:05:38;;;;;;;2.08;0.50;;;9.30;93.60;;;;;;5053280;28;20506;-59
2022/12/23 02:11:13;;;;;;;1.02;0.40;;;9.30;93.90;;;;;;5055371;28;20119;-62
2022/12/23 02:16:41;;;;;;;1.45;0.40;;;9.30;94.00;;;;;;5051006;28;20041;-66
2022/12/23 02:19:14;;;;;;;2.25;0.60;;;9.30;93.60;;;;;;5045540;28;20051;-66
2022/12/23 02:22:14;;;;;;;1.77;0.57;;;9.30;93.90;;;;;;5053220;28;20049;-59
2022/12/23 02:25:17;;;;;;;1.55;0.52;;;9.30;94.00;;;;;;5052694;28;20561;-60
2022/12/23 02:27:58;;;;;;;2.05;0.60;;;9.30;93.70;;;;;;5056694;28;20048;-57
2022/12/23 02:30:39;;;;;;;3.35;0.73;;;9.30;93.80;;;;;;5058727;28;20142;-64
2022/12/23 02:33:32;;;;;;;1.70;0.50;;;9.30;93.90;;;;;;5056389;28;20044;-64
2022/12/23 02:36:07;;;;;;;1.48;0.63;;;9.30;93.90;;;;;;5054620;28;20092;-65
2022/12/23 02:38:42;;;;;;;1.55;0.50;;;9.30;93.90;;;;;;5056852;28;20072;-65
2022/12/23 02:41:16;;;;;;;0.90;0.30;;;9.30;94.10;;;;;;5054259;28;20056;-63
2022/12/23 02:43:46;;;;;;;0.65;0.40;;;9.30;94.00;;;;;;5059745;28;20056;-64
2022/12/23 02:46:22;;;;;;;2.17;0.45;;;9.30;94.10;;;;;;5057597;28;20083;-62
2022/12/23 02:48:54;;;;;;;1.20;0.22;;;9.30;94.20;;;;;;5059503;28;20098;-62
2022/12/23 02:51:26;;;;;;;0.38;0.20;;;9.40;94.10;;;;;;5057086;28;20048;-65
2022/12/23 02:53:57;;;;;;;0.68;0.32;;;9.40;93.90;;;;;;5054863;28;20044;-64
2022/12/23 02:56:25;;;;;;;;;;;9.30;94.00;;;;;;5058909;28;20055;-63
2022/12/23 02:58:56;;;;;;;0.50;0.22;;;9.40;94.10;;;;;;5052471;28;20429;-63
2022/12/23 03:01:29;;;;;;;0.38;0.10;;;9.40;94.10;;;;;;5056897;28;20098;-62
2022/12/23 03:03:56;;;;;;;0.20;0.10;;;9.40;94.10;;;;;;5057339;28;20059;-64
2022/12/23 03:06:28;;;;;;;0.60;0.30;;;9.40;94.00;;;;;;5059663;28;20079;-59
2022/12/23 03:08:59;;;;;;;1.00;0.20;;;9.40;94.10;;;;;;5049195;28;20064;-58
2022/12/23 03:11:38;;;;;;;;;;;9.40;94.10;;;;;;5058425;28;20053;-61
2022/12/23 03:14:24;;;;;;;0.50;0.20;;;9.40;94.00;;;;;;5056247;28;20016;-60
2022/12/23 03:16:58;;;;;;;0.75;0.20;;;9.40;94.00;;;;;;5052748;28;20483;-60
2022/12/23 03:19:34;;;;;;;0.20;0.20;;;9.40;94.00;;;;;;5056402;28;20503;-61
2022/12/23 03:22:09;;;;;;;1.17;0.20;;;9.40;94.10;;;;;;5054180;28;20429;-61
2022/12/23 03:24:44;;;;;;;0.30;0.15;;;9.40;94.00;;;;;;5054881;28;20036;-61
2022/12/23 03:27:17;;;;;;;1.58;0.20;;;9.40;93.90;;;;;;5051937;28;20040;-62
2022/12/23 03:29:51;;;;;;;0.10;0.10;;;9.40;93.70;;;;;;5054311;28;20055;-59
2022/12/23 03:32:22;;;;;;;0.50;0.13;;;9.30;93.80;;;;;;5057102;28;20491;-59
2022/12/23 03:34:52;;;;;;;0.32;0.20;;;9.40;93.80;;;;;;5052711;28;20049;-59
2022/12/23 03:37:22;;;;;;;0.47;0.22;;;9.30;93.90;;;;;;5056291;28;20483;-59
2022/12/23 03:39:57;;;;;;;0.85;0.20;;;9.30;93.90;;;;;;5051205;28;20052;-59
2022/12/23 03:42:28;;;;;;;1.23;0.40;;;9.40;94.10;;;;;;5065963;28;20078;-59
2022/12/23 03:44:58;;;;;;;0.25;0.20;;;9.40;94.10;;;;;;5066649;28;20607;-60
2022/12/23 03:47:30;;;;;;;0.65;0.35;;;9.40;94.10;;;;;;5067361;28;20421;-59
2022/12/23 03:50:00;;;;;;;0.77;0.30;;;9.40;94.00;;;;;;5061318;28;20058;-60
2022/12/23 03:52:33;;;;;;;1.08;0.30;;;9.40;94.00;;;;;;5064978;28;20044;-64
2022/12/23 03:55:05;;;;;;;1.25;0.22;;;9.40;93.90;;;;;;5063405;28;20044;-64
2022/12/23 03:57:37;;;;;;;0.60;0.30;;;9.40;93.80;;;;;;5064512;28;20116;-64
2022/12/23 04:00:05;;;;;;;0.75;0.40;;;9.40;93.90;;;;;;5068914;28;20135;-64
2022/12/23 04:02:45;;;;;;;0.45;0.30;;;9.40;93.90;;;;;;5064887;28;20084;-67
2022/12/23 04:05:24;;;;;;;0.90;0.30;;;9.40;94.00;;;;;;5069562;28;20114;-64
2022/12/23 04:07:56;;;;;;;0.95;0.30;;;9.40;94.10;;;;;;5068033;28;20496;-63
2022/12/23 04:10:23;;;;;;;0.40;0.30;;;9.40;94.00;;;;;;5067932;28;20634;-59
2022/12/23 04:12:51;;;;;;;0.90;0.30;;;9.40;94.10;;;;;;5060239;28;20414;-59
2022/12/23 04:15:22;;;;;;;0.35;0.20;;;9.40;94.00;;;;;;5069467;28;20536;-60
2022/12/23 04:17:51;;;;;;;0.57;0.30;;;9.40;93.90;;;;;;5066185;28;20049;-60
2022/12/23 04:20:19;;;;;;;0.80;0.40;;;9.40;93.90;;;;;;5069540;28;20045;-58
2022/12/23 04:22:45;;;;;;;0.90;0.40;;;9.40;93.90;;;;;;5049917;28;20089;-56
2022/12/23 04:25:13;;;;;;;1.10;0.50;;;9.40;94.00;;;;;;5068329;28;20044;-58
2022/12/23 04:27:40;;;;;;;1.42;0.70;;;9.40;93.80;;;;;;5066170;28;20056;-61
2022/12/23 04:30:10;;;;;;;2.45;0.80;;;9.40;93.90;;;;;;5069372;28;20047;-57
2022/12/23 04:32:37;;;;;;;2.28;0.70;;;9.40;94.00;;;;;;5067267;28;20041;-58
2022/12/23 04:35:06;;;;;;;1.63;0.77;;;9.40;93.90;;;;;;5063872;28;20040;-58
2022/12/23 04:37:34;;;;;;;0.85;0.60;;;9.40;94.00;;;;;;5068090;28;20060;-57
2022/12/23 04:40:01;;;;;;;1.38;0.70;;;9.40;94.00;;;;;;5068993;28;20094;-57
2022/12/23 04:42:28;;;;;;;1.77;0.80;;;9.40;94.00;;;;;;5052221;28;20040;-63
2022/12/23 04:44:55;;;;;;;1.08;0.50;;;9.40;93.90;;;;;;5055337;28;20510;-63
2022/12/23 04:47:21;;;;;;;1.30;0.60;;;9.40;94.00;;;;;;5057537;28;20094;-63
2022/12/23 04:49:48;;;;;;;2.38;1.00;;;9.40;94.10;;;;;;5056606;28;20055;-62
2022/12/23 04:52:16;;;;;;;6.63;2.25;;;9.40;93.90;;;;;;5055802;28;20483;-57
2022/12/23 04:54:44;;;;;;;3.58;1.70;;;9.40;94.10;;;;;;5051407;28;20485;-58
2022/12/23 04:57:10;;;;;;;5.25;2.00;;;9.40;94.10;;;;;;5055646;28;20079;-60
2022/12/23 04:59:37;;;;;;;3.00;1.30;;;9.40;94.10;;;;;;5054688;28;20049;-60
2022/12/23 05:02:04;;;;;;;2.92;1.00;;;9.40;94.10;;;;;;5052749;28;20106;-60
2022/12/23 05:04:31;;;;;;;1.63;0.60;;;9.40;94.10;;;;;;5056511;28;20060;-61
2022/12/23 05:06:58;;;;;;;1.00;0.50;;;9.50;94.20;;;;;;5056106;28;20091;-61
2022/12/23 05:09:26;;;;;;;1.63;0.60;;;9.40;94.20;;;;;;5057691;28;20048;-59
2022/12/23 05:11:54;;;;;;;0.98;0.52;;;9.40;94.10;;;;;;5052287;28;20044;-60
2022/12/23 05:14:21;;;;;;;2.15;0.75;;;9.40;94.10;;;;;;5056290;28;20049;-59
2022/12/23 05:16:47;;;;;;;2.03;0.75;;;9.50;94.10;;;;;;5057410;28;20284;-64
2022/12/23 05:19:14;;;;;;;1.50;0.63;;;9.40;94.10;;;;;;5057099;28;20496;-61
2022/12/23 05:21:41;;;;;;;1.05;0.60;;;9.40;94.00;;;;;;5054307;28;20057;-63
2022/12/23 05:24:08;;;;;;;1.33;0.63;;;9.40;93.90;;;;;;5054327;28;20052;-64
2022/12/23 05:26:36;;;;;;;1.30;0.70;;;9.40;93.90;;;;;;5055805;28;20111;-64
2022/12/23 05:29:04;;;;;;;1.38;0.70;;;9.40;94.00;;;;;;5055596;28;20052;-63
2022/12/23 05:31:31;;;;;;;1.20;0.60;;;9.40;93.90;;;;;;5056229;28;20432;-64
2022/12/23 05:33:58;;;;;;;1.92;0.55;;;9.50;94.00;;;;;;5054385;28;20051;-65
2022/12/23 05:36:24;;;;;;;1.05;0.43;;;9.40;93.90;;;;;;5055749;28;20146;-61
2022/12/23 05:38:51;;;;;;;0.95;0.60;;;9.40;93.80;;;;;;5056348;28;20040;-61
2022/12/23 05:41:18;;;;;;;1.30;0.60;;;9.40;93.80;;;;;;5061767;28;20048;-62
2022/12/23 05:43:46;;;;;;;0.85;0.50;;;9.40;93.60;;;;;;5067073;28;20083;-61
2022/12/23 05:46:13;;;;;;;1.25;0.60;;;9.40;93.60;;;;;;5062898;28;20045;-61
2022/12/23 05:48:40;;;;;;;2.20;0.60;;;9.40;93.30;;;;;;5066236;28;20641;-62
2022/12/23 05:51:07;;;;;;;1.65;0.70;;;9.40;93.40;;;;;;5068433;28;20055;-62
2022/12/23 05:53:34;;;;;;;2.33;0.90;;;9.30;93.30;;;;;;5065635;28;20106;-61
2022/12/23 05:56:04;;;;;;;1.20;0.60;;;9.40;93.60;;;;;;5066792;28;20040;-58
2022/12/23 05:58:31;;;;;;;2.10;0.73;;;9.40;93.60;;;;;;5072179;28;20059;-59
2022/12/23 06:01:01;;;;;;;0.90;0.50;;;9.40;93.60;;;;;;5070683;28;20102;-61
2022/12/23 06:03:28;;;;;;;1.20;0.68;;;9.40;93.70;;;;;;5071253;28;20059;-60
2022/12/23 06:05:54;;;;;;;2.10;0.75;;;9.40;93.80;;;;;;5071369;28;20063;-60
2022/12/23 06:08:21;;;;;;;1.17;0.57;;;9.40;93.80;;;;;;5067404;28;20072;-60
2022/12/23 06:10:48;;;;;;;1.25;0.65;;;9.40;93.90;;;;;;5070426;28;20049;-59
2022/12/23 06:13:15;;;;;;;2.00;0.73;;;9.40;93.90;;;;;;5070355;28;20055;-59
2022/12/23 06:15:42;;;;;;;1.25;0.70;;;9.40;93.90;;;;;;5068449;28;20041;-61
2022/12/23 06:18:10;;;;;;;1.10;0.73;;;9.40;93.80;;;;;;5068843;28;20044;-60
2022/12/23 06:20:37;;;;;;;1.10;0.60;;;9.40;93.80;;;;;;5070770;28;20071;-64
2022/12/23 06:23:04;;;;;;;1.00;0.55;;;9.40;93.80;;;;;;5069122;28;20051;-63
2022/12/23 06:25:31;;;;;;;0.77;0.50;;;9.40;93.70;;;;;;5071555;28;20421;-60
2022/12/23 06:27:58;;;;;;;0.73;0.50;;;9.40;93.70;;;;;;5070700;28;20047;-59
2022/12/23 06:30:25;;;;;;;0.57;0.47;;;9.40;93.80;;;;;;5069778;28;20147;-59
2022/12/23 06:32:52;;;;;;;0.90;0.57;;;9.40;93.70;;;;;;5071129;28;20052;-59
2022/12/23 06:35:20;;;;;;;1.08;0.47;;;9.40;93.70;;;;;;5071875;28;20040;-61
2022/12/23 06:37:47;;;;;;;1.02;0.60;;;9.40;93.70;;;;;;5068490;28;20048;-59
2022/12/23 06:40:14;;;;;;;1.52;0.63;;;9.40;93.70;;;;;;5069095;28;20044;-59
2022/12/23 06:42:41;;;;;;;1.50;0.70;;;9.40;93.70;;;;;;5058042;28;20159;-60
2022/12/23 06:45:09;;;;;;;1.25;0.57;;;9.40;93.60;;;;;;5058967;28;20040;-60
2022/12/23 06:47:36;;;;;;;1.58;0.70;;;9.30;93.50;;;;;;5055231;28;20076;-59
2022/12/23 06:50:03;;;;;;;1.40;0.60;;;9.40;93.60;;;;;;5058788;28;20119;-59
2022/12/23 06:52:32;;;;;;;1.52;0.70;;;9.40;93.50;;;;;;5058363;28;20041;-59
2022/12/23 06:54:59;;;;;;;1.77;0.60;;;9.40;93.50;;;;;;5058184;28;20483;-59
2022/12/23 06:57:26;;;;;;;1.15;0.50;;;9.40;93.60;;;;;;5057973;28;20053;-60
2022/12/23 06:59:53;;;;;;;0.82;0.60;;;9.40;93.60;;;;;;5058295;28;20480;-63
2022/12/23 07:02:20;;;;;;;1.27;0.65;;;9.30;93.60;;;;;;5059349;28;20040;-56
2022/12/23 07:04:47;;;;;;;2.05;0.80;;;9.30;93.50;;;;;;5053453;28;20396;-57
2022/12/23 07:07:14;;;;;;;1.65;0.82;;;9.30;93.50;;;;;;5058298;28;20102;-59
2022/12/23 07:09:42;;;;;;;1.55;0.88;;;9.30;93.50;;;;;;5057308;28;20044;-59
2022/12/23 07:12:09;;;;;;;1.63;0.90;;;9.40;93.40;;;;;;5055384;28;20052;-65
2022/12/23 07:14:36;;;;;;;1.75;1.00;;;9.30;93.30;;;;;;5059056;28;20512;-63
2022/12/23 07:17:02;;;;;;;1.83;0.82;;;9.30;93.40;;;;;;5054884;28;20053;-57
2022/12/23 07:19:30;;;;;;;2.10;1.13;;;9.30;93.50;;;;;;5058336;28;20461;-57
2022/12/23 07:21:57;;;;;;;3.92;1.33;;;9.30;93.40;;;;;;5057571;28;20056;-57
2022/12/23 07:24:24;;;;;;;3.83;1.20;;;9.30;93.40;;;;;;5057151;28;20061;-57
2022/12/23 07:26:54;;;;;;;3.25;1.27;;;9.30;93.40;;;;;;5057155;28;20079;-64
2022/12/23 07:29:23;;;;;;;2.28;1.23;;;9.30;93.40;;;;;;5057848;28;20122;-64
2022/12/23 07:31:51;;;;;;;2.35;1.33;;;9.30;93.40;;;;;;5055709;28;20095;-62
2022/12/23 07:34:18;;;;;;;2.83;1.38;;;9.30;93.40;;;;;;5055489;28;20049;-63
2022/12/23 07:36:45;;;;;;;3.30;1.27;;;9.30;93.40;;;;;;5052013;28;20098;-63
2022/12/23 07:39:12;;;;;;;2.47;1.30;;;9.30;93.40;;;;;;5054729;28;20048;-62
2022/12/23 07:41:39;;;;;;;3.58;1.20;;;9.30;93.30;;;;;;5062237;28;20057;-63
2022/12/23 07:44:08;;;;;;;3.90;1.20;;;9.30;93.30;;;;;;5069912;28;20055;-62
2022/12/23 07:46:35;;;;;;;4.55;1.35;;;9.40;93.30;;;;;;5068774;28;20087;-60
2022/12/23 07:49:02;;;;;;;3.55;1.30;;;9.40;93.20;;;;;;5069756;28;20052;-60
2022/12/23 07:51:29;;;;;;;3.22;1.27;;;9.40;93.20;;;;;;5067092;28;20411;-58
2022/12/23 07:53:59;;;;;;;3.00;1.30;;;9.40;93.10;;;;;;5066922;28;20044;-65
2022/12/23 07:56:30;;;;;;;3.88;1.35;;;9.40;93.20;;;;;;5069320;28;20110;-57
2022/12/23 07:58:57;;;;;;;3.63;1.42;;;9.40;93.00;;;;;;5068645;28;20068;-57
2022/12/23 08:01:25;;;;;;;3.40;1.50;;;9.40;92.90;;;;;;5068747;28;20047;-58
2022/12/23 08:03:52;;;;;;;3.10;1.75;;;9.40;93.00;;;;;;5049111;28;20063;-57
2022/12/23 08:06:19;;;;;;;2.97;1.50;;;9.40;93.00;;;;;;5068228;28;20137;-59
2022/12/23 08:08:47;;;;;;;3.92;1.98;;;9.40;92.90;;;;;;5068378;28;20135;-59
2022/12/23 08:11:15;;;;;;;3.50;1.90;;;9.40;92.90;;;;;;5069293;28;20068;-62
2022/12/23 08:13:43;;;;;;;4.07;2.17;;;9.40;93.00;;;;;;5067523;28;20040;-62
2022/12/23 08:16:11;;;;;;;4.43;2.10;;;9.40;92.90;;;;;;5067357;28;20047;-63
2022/12/23 08:18:41;;;;;;;3.25;1.60;;;9.40;93.00;;;;;;5066155;28;20063;-64
2022/12/23 08:21:13;;;;;;;2.28;1.08;;;9.40;93.00;;;;;;5068965;28;20134;-64
2022/12/23 08:23:40;;;;;;;2.65;1.42;;;9.40;92.90;;;;;;5067655;28;20118;-65
2022/12/23 08:26:09;;;;;;;2.85;1.30;;;9.40;92.90;;;;;;5050237;28;20510;-60
2022/12/23 08:28:37;;;;;;;3.88;1.50;;;9.40;93.00;;;;;;5068333;28;20052;-60
2022/12/23 08:31:06;;;;;;;2.10;1.00;;;9.40;92.80;;;;;;5068889;28;20051;-60
2022/12/23 08:33:33;;;;;;;2.75;1.27;;;9.50;92.70;;;;;;5068066;28;20059;-59
2022/12/23 08:36:02;;;;;;;2.65;1.20;;;9.40;92.60;;;;;;5068354;28;20048;-59
2022/12/23 08:38:34;;;;;;;2.67;1.10;;;9.40;92.60;;;;;;5067063;28;20680;-59
2022/12/23 08:41:01;;;;;;;3.13;1.13;;;9.50;92.90;;;;;;5062067;28;20056;-57
2022/12/23 08:43:33;;;;;;;2.88;0.82;;;9.50;92.50;;;;;;5057327;28;20094;-57
2022/12/23 08:46:00;;;;;;;1.77;0.90;;;9.50;92.70;;;;;;5055910;28;20064;-61
2022/12/23 08:48:29;;;;;;;1.58;0.70;;;9.50;92.80;;;;;;5057458;28;20407;-61
2022/12/23 08:50:56;;;;;;;2.05;0.82;;;9.50;92.80;;;;;;5056675;28;20052;-63
2022/12/23 08:53:24;;;;;;;3.85;1.45;;;9.50;92.60;;;;;;5058603;28;20406;-64
2022/12/23 08:55:51;;;;;;;5.32;2.58;;;9.50;92.50;;;;;;5055629;28;20417;-62
2022/12/23 08:58:18;;;;;;;9.43;4.13;;;9.60;92.50;;;;;;5058477;28;20045;-61
2022/12/23 09:00:45;;;;;;;12.63;5.40;;;9.60;92.70;;;;;;5055074;28;20056;-64
2022/12/23 09:03:12;;;;;;;11.60;5.32;;;9.60;92.60;;;;;;5057127;28;20040;-63
2022/12/23 09:05:42;;;;;;;12.48;4.90;;;9.60;92.80;;;;;;5053469;28;20064;-59
2022/12/23 09:08:09;;;;;;;10.57;4.25;;;9.60;92.90;;;;;;5054102;28;20080;-59
2022/12/23 09:10:41;;;;;;;6.63;3.25;;;9.60;92.90;;;;;;5054992;28;20041;-63
2022/12/23 09:13:09;;;;;;;7.78;3.30;;;9.60;92.90;;;;;;5057052;28;20106;-65
2022/12/23 09:15:40;;;;;;;5.60;2.22;;;9.70;92.90;;;;;;5057501;28;20626;-62
2022/12/23 09:18:07;;;;;;;4.45;2.00;;;9.70;92.90;;;;;;5056519;28;20041;-62
2022/12/23 09:20:34;;;;;;;3.97;1.80;;;9.70;92.90;;;;;;5057989;28;20052;-61
2022/12/23 09:23:01;;;;;;;2.63;1.25;;;9.70;92.80;;;;;;5056791;28;20071;-61
2022/12/23 09:25:31;;;;;;;3.88;1.52;;;9.70;92.90;;;;;;5056568;28;20534;-59
2022/12/23 09:27:59;;;;;;;3.65;1.38;;;9.70;92.80;;;;;;5054308;28;20108;-60
2022/12/23 09:30:26;;;;;;;3.78;1.30;;;9.70;92.70;;;;;;5056517;28;20040;-58
2022/12/23 09:32:53;;;;;;;4.65;1.60;;;9.70;92.90;;;;;;5055626;28;20394;-59
2022/12/23 09:35:20;;;;;;;3.15;1.45;;;9.70;93.00;;;;;;5056670;28;20040;-59
2022/12/23 09:37:47;;;;;;;3.33;1.70;;;9.80;93.00;;;;;;5056513;28;20065;-60
2022/12/23 09:40:15;;;;;;;4.03;1.42;;;9.80;92.90;;;;;;5058483;28;20040;-60
2022/12/23 09:42:54;;;;;;;3.65;1.35;;;9.80;93.00;;;;;;5065416;28;20043;-61
2022/12/23 09:45:44;;;;;;;2.28;1.10;;;9.90;93.10;;;;;;5066377;28;20052;-59
2022/12/23 09:48:15;;;;;;;2.47;1.45;;;9.90;93.10;;;;;;5067798;28;20049;-58
2022/12/23 09:50:44;;;;;;;2.95;1.17;;;9.90;93.20;;;;;;5066060;28;20071;-59
2022/12/23 09:53:15;;;;;;;3.65;1.83;;;9.90;93.10;;;;;;5068245;28;20510;-59
2022/12/23 09:55:49;;;;;;;4.88;2.30;;;9.90;93.20;;;;;;5067827;28;20045;-58
2022/12/23 09:58:26;;;;;;;4.57;2.35;;;9.90;93.20;;;;;;5067153;28;20072;-58
2022/12/23 10:01:13;;;;;;;3.53;1.70;;;10.00;93.20;;;;;;5063253;28;20044;-61
2022/12/23 10:03:58;;;;;;;3.78;1.60;;;10.00;93.20;;;;;;5065010;28;20066;-61
2022/12/23 10:06:28;;;;;;;5.00;1.67;;;10.00;93.20;;;;;;5066704;28;20406;-58
2022/12/23 10:08:59;;;;;;;3.85;1.40;;;10.10;93.10;;;;;;5066709;28;20458;-59
2022/12/23 10:11:31;;;;;;;2.38;1.00;;;10.10;93.20;;;;;;5066482;28;20067;-59
2022/12/23 10:14:00;;;;;;;1.75;0.93;;;10.10;93.10;;;;;;5066431;28;20044;-60
2022/12/23 10:16:35;;;;;;;2.28;0.85;;;10.10;93.20;;;;;;5065044;28;20137;-63
2022/12/23 10:19:06;;;;;;;3.35;0.88;;;10.10;93.10;;;;;;5067847;28;20060;-64
2022/12/23 10:21:40;;;;;;;1.40;0.80;;;10.10;93.00;;;;;;5067638;28;20055;-59
2022/12/23 10:24:14;;;;;;;1.02;0.73;;;10.10;93.00;;;;;;5067854;28;20052;-60
2022/12/23 10:26:46;;;;;;;1.77;0.98;;;10.20;93.00;;;;;;5065912;28;20045;-59
2022/12/23 10:29:17;;;;;;;1.95;0.93;;;10.10;93.00;;;;;;5064450;28;20049;-61
2022/12/23 10:32:01;;;;;;;2.20;1.20;;;10.10;93.00;;;;;;5066292;28;20048;-58
2022/12/23 10:34:37;;;;;;;4.82;2.05;;;10.10;93.00;;;;;;5064076;28;20075;-59
2022/12/23 10:37:11;;;;;;;3.20;1.80;;;10.10;93.00;;;;;;5065685;28;20052;-57
2022/12/23 10:39:46;;;;;;;3.80;1.60;;;10.10;92.90;;;;;;5065915;28;20750;-57
2022/12/23 10:42:21;;;;;;;3.00;1.50;;;10.10;93.00;;;;;;5066215;28;20049;-60
2022/12/23 10:45:02;;;;;;;2.85;1.40;;;10.10;93.00;;;;;;5068128;28;20047;-60
2022/12/23 10:47:49;;;;;;;2.40;1.02;;;10.10;93.00;;;;;;5069553;28;20084;-62
2022/12/23 10:50:31;;;;;;;1.80;0.95;;;10.10;93.00;;;;;;5069542;28;20044;-60
2022/12/23 10:53:01;;;;;;;2.80;1.20;;;10.10;93.00;;;;;;5067990;28;20051;-61
2022/12/23 10:55:32;;;;;;;4.00;1.33;;;10.10;93.00;;;;;;5069424;28;20056;-60
2022/12/23 10:58:05;;;;;;;2.22;1.05;;;10.10;93.00;;;;;;5070320;28;20045;-60
2022/12/23 11:00:33;;;;;;;2.38;1.13;;;10.10;92.90;;;;;;5067346;28;20052;-61
2022/12/23 11:03:13;;;;;;;1.85;1.05;;;10.10;93.00;;;;;;5067876;28;20499;-60
2022/12/23 11:05:44;;;;;;;2.38;0.90;;;10.10;93.00;;;;;;5069750;28;20133;-65
2022/12/23 11:08:11;;;;;;;3.72;1.10;;;10.10;93.00;;;;;;5070973;28;20049;-66
2022/12/23 11:10:39;;;;;;;2.42;1.20;;;10.10;93.00;;;;;;5066635;28;20063;-62
2022/12/23 11:13:06;;;;;;;1.98;0.98;;;10.10;93.00;;;;;;5070902;28;20047;-62
2022/12/23 11:15:36;;;;;;;4.38;2.28;;;10.10;93.00;;;;;;5069766;28;20052;-60
2022/12/23 11:18:17;;;;;;;4.63;2.40;;;10.10;93.00;;;;;;5069149;28;20049;-61
2022/12/23 11:20:46;;;;;;;4.82;2.03;;;10.10;92.90;;;;;;5070103;28;20075;-59
2022/12/23 11:23:25;;;;;;;5.65;2.38;;;10.10;92.90;;;;;;5071014;28;20711;-60
2022/12/23 11:26:00;;;;;;;5.55;2.90;;;10.20;93.00;;;;;;5068963;28;20048;-58
2022/12/23 11:28:29;;;;;;;6.03;3.22;;;10.10;92.90;;;;;;5069050;28;20115;-58
2022/12/23 11:30:58;;;;;;;7.15;3.30;;;10.20;93.00;;;;;;5070536;28;20051;-61
2022/12/23 11:33:29;;;;;;;5.65;2.97;;;10.10;92.90;;;;;;5069460;28;20132;-60
2022/12/23 11:36:06;;;;;;;6.85;3.00;;;10.10;92.90;;;;;;5068694;28;20078;-62
2022/12/23 11:38:35;;;;;;;5.10;2.80;;;10.10;92.90;;;;;;5064606;28;20071;-61
2022/12/23 11:41:04;;;;;;;5.00;2.57;;;10.10;92.90;;;;;;5064992;28;20056;-61
2022/12/23 11:43:32;;;;;;;4.18;2.42;;;10.10;92.90;;;;;;5065949;28;20211;-61
2022/12/23 11:46:17;;;;;;;5.30;2.58;;;10.10;93.00;;;;;;5068387;28;20135;-59
2022/12/23 11:48:46;;;;;;;5.57;2.58;;;10.10;93.00;;;;;;5069828;28;20053;-59
2022/12/23 11:51:13;;;;;;;5.35;2.38;;;10.20;93.10;;;;;;5068853;28;20134;-60
2022/12/23 11:53:43;;;;;;;3.15;1.80;;;10.10;93.00;;;;;;5069305;28;20049;-65
2022/12/23 11:56:12;;;;;;;3.53;1.63;;;10.10;93.10;;;;;;5069357;28;20051;-58
2022/12/23 11:58:47;;;;;;;3.67;1.65;;;10.20;93.10;;;;;;5069281;28;20074;-58
2022/12/23 12:01:17;;;;;;;3.03;1.40;;;10.10;93.00;;;;;;5069332;28;20048;-58
2022/12/23 12:03:48;;;;;;;;;;;10.10;93.00;;;;;;5068681;28;20048;-58
2022/12/23 12:06:18;;;;;;;2.47;1.33;;;10.10;93.10;;;;;;5069029;28;19924;-64
2022/12/23 12:08:47;;;;;;;;;;;10.10;93.00;;;;;;5069658;28;20056;-64
2022/12/23 12:11:18;;;;;;;2.63;1.33;;;10.20;93.00;;;;;;5066262;28;19970;-64
2022/12/23 12:13:49;;;;;;;2.60;1.27;;;10.20;93.00;;;;;;5069053;28;20044;-64
2022/12/23 12:16:26;;;;;;;2.70;1.27;;;10.20;93.00;;;;;;5070494;28;20045;-65
2022/12/23 12:18:57;;;;;;;3.47;1.60;;;10.20;93.00;;;;;;5068852;28;20052;-64
2022/12/23 12:21:29;;;;;;;3.50;1.70;;;10.20;93.00;;;;;;5069164;28;20410;-65
2022/12/23 12:24:03;;;;;;;4.45;2.00;;;10.30;93.00;;;;;;5067859;28;20082;-65
2022/12/23 12:26:32;;;;;;;3.72;1.98;;;10.30;93.00;;;;;;5069761;28;20057;-64
2022/12/23 12:29:06;;;;;;;4.97;2.13;;;10.30;93.00;;;;;;5068511;28;20472;-64
2022/12/23 12:31:39;;;;;;;4.07;2.50;;;10.30;93.10;;;;;;5069309;28;20047;-57
2022/12/23 12:34:22;;;;;;;5.10;2.40;;;10.40;93.10;;;;;;5069037;28;20060;-57
2022/12/23 12:36:56;;;;;;;4.18;2.20;;;10.30;93.10;;;;;;5066413;28;20060;-65
2022/12/23 12:39:29;;;;;;;7.18;2.50;;;10.30;93.20;;;;;;5068154;28;20499;-67
2022/12/23 12:42:00;;;;;;;3.90;2.22;;;10.30;93.20;;;;;;5058643;28;20048;-63
2022/12/23 12:44:37;;;;;;;3.50;1.67;;;10.30;93.10;;;;;;5056448;28;20048;-62
2022/12/23 12:47:10;;;;;;;3.08;1.65;;;10.30;93.10;;;;;;5055934;28;20466;-63
2022/12/23 12:49:43;;;;;;;3.70;1.50;;;10.30;93.10;;;;;;5057219;28;20044;-63
2022/12/23 12:52:14;;;;;;;3.53;1.70;;;10.30;93.10;;;;;;5053594;28;20041;-62
2022/12/23 12:54:47;;;;;;;2.85;1.55;;;10.30;92.90;;;;;;5051670;28;20045;-62
2022/12/23 12:57:16;;;;;;;3.25;1.80;;;10.30;93.30;;;;;;5055940;28;20482;-61
2022/12/23 12:59:44;;;;;;;3.60;1.70;;;10.30;93.30;;;;;;5052302;28;20055;-60
2022/12/23 13:02:45;;;;;;;3.35;1.80;;;10.20;93.30;;;;;;5055356;28;20064;-62
2022/12/23 13:05:35;;;;;;;3.17;1.58;;;10.20;93.40;;;;;;5041433;28;20053;-64
2022/12/23 13:08:27;;;;;;;4.43;1.98;;;10.20;93.40;;;;;;5053709;28;20418;-57
2022/12/23 13:11:00;;;;;;;3.92;1.98;;;10.20;93.40;;;;;;5054137;28;20067;-59
2022/12/23 13:13:41;;;;;;;3.40;1.92;;;10.20;93.40;;;;;;5052631;28;20052;-60
2022/12/23 13:16:16;;;;;;;4.05;1.70;;;10.20;93.40;;;;;;5055944;28;20041;-61
2022/12/23 13:18:51;;;;;;;4.03;1.83;;;10.10;93.30;;;;;;5056029;28;20081;-61
2022/12/23 13:21:25;;;;;;;6.22;1.67;;;10.20;93.30;;;;;;5057457;28;20483;-58
2022/12/23 13:24:01;;;;;;;3.42;1.67;;;10.20;93.40;;;;;;5055921;28;20411;-57
2022/12/23 13:26:36;;;;;;;7.28;2.55;;;10.10;93.10;;;;;;5056199;28;20068;-60
2022/12/23 13:29:37;;;;;;;4.35;2.25;;;10.20;93.00;;;;;;5057990;28;20461;-67
2022/12/23 13:32:20;;;;;;;6.55;2.53;;;10.10;93.30;;;;;;5056330;28;20045;-64
2022/12/23 13:35:00;;;;;;;7.80;3.10;;;10.10;93.60;;;;;;5056069;28;20048;-63
2022/12/23 13:37:41;;;;;;;5.43;2.60;;;10.10;93.60;;;;;;5056962;28;20113;-60
2022/12/23 13:40:26;;;;;;;6.90;2.85;;;10.10;93.60;;;;;;5054261;28;20043;-60
2022/12/23 13:42:57;;;;;;;6.43;2.95;;;10.20;93.70;;;;;;5055925;28;20040;-59
2022/12/23 13:45:30;;;;;;;5.35;2.55;;;10.10;93.60;;;;;;5057451;28;20071;-59